sensor_id;sensor_type;location;lat;lon;timestamp;pressure;altitude;pressure_sealevel;temperature
49557;BMP280;35462;45.048;7.666;2023-04-23T00:08:17;98562.56;;;19.63
49557;BMP280;35462;45.048;7.666;2023-04-23T00:23:22;98557.78;;;19.53
49557;BMP280;35462;45.048;7.666;2023-04-23T00:38:25;98545.03;;;19.48
49557;BMP280;35462;45.048;7.666;2023-04-23T00:53:29;98540.78;;;19.41
49557;BMP280;35462;45.048;7.666;2023-04-23T01:08:33;98534.56;;;19.35
49557;BMP280;35462;45.048;7.666;2023-04-23T01:23:39;98512.31;;;19.15
49557;BMP280;35462;45.048;7.666;2023-04-23T01:38:43;98510.50;;;19.07
49557;BMP280;35462;45.048;7.666;2023-04-23T01:53:47;98503.59;;;18.86
49557;BMP280;35462;45.048;7.666;2023-04-23T02:08:51;98521.09;;;18.81
49557;BMP280;35462;45.048;7.666;2023-04-23T02:23:55;98532.34;;;18.71
49557;BMP280;35462;45.048;7.666;2023-04-23T02:38:58;98528.81;;;18.65
49557;BMP280;35462;45.048;7.666;2023-04-23T02:54:02;98514.75;;;18.41
49557;BMP280;35462;45.048;7.666;2023-04-23T03:09:06;98517.06;;;18.33
49557;BMP280;35462;45.048;7.666;2023-04-23T03:24:12;98522.41;;;18.19
49557;BMP280;35462;45.048;7.666;2023-04-23T03:39:17;98520.81;;;18.13
49557;BMP280;35462;45.048;7.666;2023-04-23T03:54:26;98508.69;;;18.03
49557;BMP280;35462;45.048;7.666;2023-04-23T04:09:40;98515.84;;;17.97
49557;BMP280;35462;45.048;7.666;2023-04-23T04:24:44;98515.94;;;17.88
49557;BMP280;35462;45.048;7.666;2023-04-23T04:39:49;98490.56;;;17.74
49557;BMP280;35462;45.048;7.666;2023-04-23T04:54:53;98515.31;;;17.69
49557;BMP280;35462;45.048;7.666;2023-04-23T05:09:57;98520.47;;;17.73
49557;BMP280;35462;45.048;7.666;2023-04-23T05:25:01;98529.06;;;17.86
49557;BMP280;35462;45.048;7.666;2023-04-23T05:40:05;98528.38;;;18.00
49557;BMP280;35462;45.048;7.666;2023-04-23T05:55:10;98536.41;;;18.52
49557;BMP280;35462;45.048;7.666;2023-04-23T06:10:14;98526.34;;;18.90
49557;BMP280;35462;45.048;7.666;2023-04-23T06:25:18;98547.53;;;19.71
49557;BMP280;35462;45.048;7.666;2023-04-23T06:40:22;98525.53;;;19.53
49557;BMP280;35462;45.048;7.666;2023-04-23T06:55:25;98535.84;;;19.74
49557;BMP280;35462;45.048;7.666;2023-04-23T07:10:31;98539.16;;;19.29
49557;BMP280;35462;45.048;7.666;2023-04-23T07:25:35;98536.09;;;19.56
49557;BMP280;35462;45.048;7.666;2023-04-23T07:40:39;98527.13;;;19.79
49557;BMP280;35462;45.048;7.666;2023-04-23T07:55:43;98511.66;;;20.19
49557;BMP280;35462;45.048;7.666;2023-04-23T08:10:47;98509.63;;;20.90
49557;BMP280;35462;45.048;7.666;2023-04-23T08:25:51;98505.97;;;21.98
49557;BMP280;35462;45.048;7.666;2023-04-23T08:40:56;98514.22;;;23.37
49557;BMP280;35462;45.048;7.666;2023-04-23T08:56:01;98501.84;;;23.98
49557;BMP280;35462;45.048;7.666;2023-04-23T09:11:06;98473.88;;;24.48
49557;BMP280;35462;45.048;7.666;2023-04-23T09:26:18;98470.69;;;24.21
49557;BMP280;35462;45.048;7.666;2023-04-23T09:41:26;98456.25;;;24.07
49557;BMP280;35462;45.048;7.666;2023-04-23T09:56:30;98425.44;;;24.16
49557;BMP280;35462;45.048;7.666;2023-04-23T10:11:35;98419.84;;;24.08
49557;BMP280;35462;45.048;7.666;2023-04-23T10:26:41;98413.84;;;24.44
49557;BMP280;35462;45.048;7.666;2023-04-23T10:41:46;98410.44;;;24.44
49557;BMP280;35462;45.048;7.666;2023-04-23T10:56:57;98391.84;;;24.30
49557;BMP280;35462;45.048;7.666;2023-04-23T11:12:05;98356.09;;;24.13
49557;BMP280;35462;45.048;7.666;2023-04-23T11:27:11;98339.63;;;24.11
49557;BMP280;35462;45.048;7.666;2023-04-23T11:42:16;98332.19;;;23.93
49557;BMP280;35462;45.048;7.666;2023-04-23T11:57:22;98314.09;;;24.30
49557;BMP280;35462;45.048;7.666;2023-04-23T12:12:32;98296.53;;;24.36
49557;BMP280;35462;45.048;7.666;2023-04-23T12:27:39;98289.66;;;24.35
49557;BMP280;35462;45.048;7.666;2023-04-23T12:42:43;98269.81;;;24.28
49557;BMP280;35462;45.048;7.666;2023-04-23T12:57:47;98243.06;;;24.19
49557;BMP280;35462;45.048;7.666;2023-04-23T13:12:51;98222.25;;;24.14
49557;BMP280;35462;45.048;7.666;2023-04-23T13:27:55;98213.97;;;24.25
49557;BMP280;35462;45.048;7.666;2023-04-23T13:42:59;98191.53;;;24.30
49557;BMP280;35462;45.048;7.666;2023-04-23T13:58:04;98171.34;;;24.31
49557;BMP280;35462;45.048;7.666;2023-04-23T14:13:08;98157.69;;;24.18
49557;BMP280;35462;45.048;7.666;2023-04-23T14:28:22;98140.16;;;24.24
49557;BMP280;35462;45.048;7.666;2023-04-23T14:43:26;98113.69;;;23.99
49557;BMP280;35462;45.048;7.666;2023-04-23T14:58:30;98106.56;;;23.77
49557;BMP280;35462;45.048;7.666;2023-04-23T15:13:37;98101.72;;;23.71
49557;BMP280;35462;45.048;7.666;2023-04-23T15:28:41;98078.25;;;23.60
49557;BMP280;35462;45.048;7.666;2023-04-23T15:43:45;98066.25;;;23.56
49557;BMP280;35462;45.048;7.666;2023-04-23T15:58:51;98047.72;;;23.47
49557;BMP280;35462;45.048;7.666;2023-04-23T16:13:55;98052.16;;;23.20
49557;BMP280;35462;45.048;7.666;2023-04-23T16:28:59;98020.59;;;22.86
49557;BMP280;35462;45.048;7.666;2023-04-23T16:44:03;98042.47;;;22.83
49557;BMP280;35462;45.048;7.666;2023-04-23T16:59:07;98031.50;;;22.46
49557;BMP280;35462;45.048;7.666;2023-04-23T17:14:11;98008.13;;;22.19
49557;BMP280;35462;45.048;7.666;2023-04-23T17:29:15;98001.66;;;21.93
49557;BMP280;35462;45.048;7.666;2023-04-23T17:44:19;97998.88;;;21.64
49557;BMP280;35462;45.048;7.666;2023-04-23T17:59:23;97994.31;;;21.31
49557;BMP280;35462;45.048;7.666;2023-04-23T18:14:27;97988.25;;;21.14
49557;BMP280;35462;45.048;7.666;2023-04-23T18:29:31;98008.34;;;20.97
49557;BMP280;35462;45.048;7.666;2023-04-23T18:44:35;98022.09;;;20.88
49557;BMP280;35462;45.048;7.666;2023-04-23T18:59:39;98024.03;;;20.71
49557;BMP280;35462;45.048;7.666;2023-04-23T19:14:43;98038.22;;;20.55
49557;BMP280;35462;45.048;7.666;2023-04-23T19:29:47;98058.25;;;20.54
49557;BMP280;35462;45.048;7.666;2023-04-23T19:44:52;98082.00;;;20.45
49557;BMP280;35462;45.048;7.666;2023-04-23T19:59:55;98092.19;;;20.30
49557;BMP280;35462;45.048;7.666;2023-04-23T20:14:59;98099.78;;;20.21
49557;BMP280;35462;45.048;7.666;2023-04-23T20:30:04;98134.69;;;20.15
49557;BMP280;35462;45.048;7.666;2023-04-23T20:45:10;98108.25;;;19.61
49557;BMP280;35462;45.048;7.666;2023-04-23T21:00:15;98008.59;;;19.12
49557;BMP280;35462;45.048;7.666;2023-04-23T21:15:20;97989.81;;;18.50
49557;BMP280;35462;45.048;7.666;2023-04-23T21:45:33;98042.53;;;18.33
49557;BMP280;35462;45.048;7.666;2023-04-23T22:00:37;98037.97;;;18.20
49557;BMP280;35462;45.048;7.666;2023-04-23T22:15:41;98035.88;;;18.04
49557;BMP280;35462;45.048;7.666;2023-04-23T22:30:46;98028.72;;;17.95
49557;BMP280;35462;45.048;7.666;2023-04-23T22:45:50;98015.84;;;17.79
49557;BMP280;35462;45.048;7.666;2023-04-23T23:00:54;98043.69;;;17.67
49557;BMP280;35462;45.048;7.666;2023-04-23T23:15:58;98053.56;;;17.61
49557;BMP280;35462;45.048;7.666;2023-04-23T23:31:07;98025.75;;;17.54
49557;BMP280;35462;45.048;7.666;2023-04-23T23:46:12;98020.53;;;17.16
